Aérodrome :
LOGIN :

S'inscrire | Disclaimer

   EN    FR    IT 

 










Légende :    VFR   VFR Marginal   IFR   IFR Intensif   IFR Très Intensif
Visi : 
Plafond : 
>= 8 km
>= 3000ft
5 à 8 km
1000 à 3000 ft
1500m à 5 km
500 à 1000 ft
800 à 1500m
200 à 500 ft
< 800m
< 200 ft
Symboles :   Orages  Brouillard  Fortes neiges  Fortes précipitations  Vent > 20 kt
SIGMETs :   Divers  Orages  Givrage  Turbulence  Onde Orograph.  Cendres Volcan.






- Altitude de l'aérodrome : 87 ft
- Code IATA : FSC


LFKF - Figari

DERNIER METAR :
  • 290930Z AUTO 20009KT 140V230 CAVOK 16/11 Q1014 TEMPO SCT020TCU

METARs EXPIRÉS :
  • 290900Z AUTO 20009KT 170V230 CAVOK 16/10 Q1014 NOSIG
  • 290830Z AUTO VRB01KT CAVOK 14/11 Q1014 NOSIG
  • 290800Z AUTO VRB02KT CAVOK 13/10 Q1014 NOSIG
  • 290730Z AUTO VRB01KT CAVOK 11/11 Q1014 NOSIG
  • 290700Z AUTO 00000KT CAVOK 09/09 Q1014 BECMG 24010KT

TAF TAF LFKF
Valide du 29 à 09h jusqu'au 30 à 09h UTC


290800Z 2909/3009 24010KT CAVOK
TEMPO 2911/2915 SCT020TCU
BECMG 2918/2921 05005KT



MET'MAP, la Météo Aéronautique d'un coup d'oeil ! - Copyright ORBIFLY Décembre 2007 - Disclaimer

ORBIFLY MET'MAP TEAM :

Programmation & Développement : Alexandra Zaïnal
Sur une idée originale de : Baudouin d'Aumeries
Assistance à la programmation : Marc-Olivier Méhu
Soutien technique & logistique : Manuel Goepfert

Contact : metmap@orbifly.com




SOURCES & CREDITS :

   NOAA